Aviation Digital Data Service (ADDS)

Output produced by METARs form (1057 UTC 01 March 2015)
found at http://aviationweather.gov/adds/metars/
 
KPBG 010521Z 0106/0206 VRB02KT P6SM SKC 
     FM010900 VRB02KT P6SM BKN150 
     FM011500 15009G16KT P6SM OVC050 
     FM011900 16007G16KT 3SM -SN BR SCT025 OVC050 
     FM012300 VRB05KT 2SM -SN BR OVC020